Terminal Aerodrome Forecast
Issued by NWS

Home | Current Version | Previous Version | Text Only | Print | Product List | Glossary On
Versions: 1 2 3 4 5 6 7 8 9 10 11 12 13 14 15 16 17 18 19 20
000
FTUS44 KLZK 071136
TAFBPK
TAF
KBPK 071136Z 0712/0812 06005KT P6SM SCT050 BKN100
     FM072000 04007KT P6SM VCSH BKN035 OVC060 PROB30 0723/0802 5SM
      -RASN OVC040
     FM080300 33008G15KT P6SM -RASN BKN030 OVC050
      TEMPO 0803/0806 4SM -SN OVC025
     FM080600 34009KT P6SM SCT020 OVC050
     FM081000 36009KT P6SM SCT050 BKN100=

USA.gov is the U.S. government's official web portal to all federal, state and local government web resources and services.